createdAt,value
2023-02-03T00:00:58.358Z,1012.33
2023-02-03T00:01:58.624Z,1012.41
2023-02-03T00:02:58.414Z,1012.47
2023-02-03T00:03:58.330Z,1012.48
2023-02-03T00:04:58.323Z,1012.43
2023-02-03T00:05:58.386Z,1012.45
2023-02-03T00:06:58.667Z,1012.34
2023-02-03T00:07:58.307Z,1012.37
2023-02-03T00:08:58.352Z,1012.41
2023-02-03T00:09:58.290Z,1012.39
2023-02-03T00:10:58.299Z,1012.35
2023-02-03T00:11:58.274Z,1012.43
2023-02-03T00:12:58.273Z,1012.40
2023-02-03T00:13:58.275Z,1012.45
2023-02-03T00:14:58.278Z,1012.42
2023-02-03T00:15:58.296Z,1012.32
2023-02-03T00:16:58.255Z,1012.35
2023-02-03T00:17:58.236Z,1012.35
2023-02-03T00:18:58.756Z,1012.33
2023-02-03T00:19:58.218Z,1012.34
2023-02-03T00:20:58.234Z,1012.34
2023-02-03T00:21:58.214Z,1012.23
2023-02-03T00:22:58.195Z,1012.14
2023-02-03T00:23:58.193Z,1012.24
2023-02-03T00:24:58.206Z,1012.22
2023-02-03T00:25:58.193Z,1012.21
2023-02-03T00:26:58.301Z,1012.19
2023-02-03T00:27:58.279Z,1012.20
2023-02-03T00:28:58.155Z,1012.19
2023-02-03T00:29:58.153Z,1012.06
2023-02-03T00:30:58.154Z,1012.20
2023-02-03T00:31:58.306Z,1012.10
2023-02-03T00:32:58.134Z,1012.10
2023-02-03T00:33:58.139Z,1012.11
2023-02-03T00:34:58.124Z,1012.14
2023-02-03T00:35:58.133Z,1012.20
2023-02-03T00:36:58.106Z,1012.20
2023-02-03T00:37:58.139Z,1012.18
2023-02-03T00:38:58.090Z,1012.05
2023-02-03T00:39:58.091Z,1012.09
2023-02-03T00:40:58.094Z,1012.17
2023-02-03T00:41:58.084Z,1012.15
2023-02-03T00:42:58.062Z,1012.13
2023-02-03T00:43:58.060Z,1012.11
2023-02-03T00:44:58.050Z,1012.16
2023-02-03T00:45:58.209Z,1012.07
2023-02-03T00:46:58.040Z,1012.17
2023-02-03T00:47:58.070Z,1012.10
2023-02-03T00:48:58.029Z,1012.15
2023-02-03T00:49:58.047Z,1012.15
2023-02-03T00:50:58.041Z,1012.16
2023-02-03T00:51:58.010Z,1012.13
2023-02-03T00:52:57.997Z,1012.18
2023-02-03T00:53:58.006Z,1012.16
2023-02-03T00:54:57.991Z,1012.23
2023-02-03T00:55:58.002Z,1012.22
2023-02-03T00:56:57.966Z,1012.28
2023-02-03T00:57:57.979Z,1012.19
2023-02-03T00:58:57.963Z,1012.28
2023-02-03T00:59:58.215Z,1012.31
2023-02-03T01:00:58.073Z,1012.27
2023-02-03T01:01:57.982Z,1012.27
2023-02-03T01:02:57.936Z,1012.26
2023-02-03T01:03:57.928Z,1012.30
2023-02-03T01:04:57.924Z,1012.29
2023-02-03T01:05:58.137Z,1012.29
2023-02-03T01:06:58.544Z,1012.31
2023-02-03T01:07:57.899Z,1012.31
2023-02-03T01:08:57.885Z,1012.28
2023-02-03T01:09:58.574Z,1012.29
2023-02-03T01:10:57.885Z,1012.25
2023-02-03T01:11:57.891Z,1012.39
2023-02-03T01:12:58.348Z,1012.32
2023-02-03T01:13:58.115Z,1012.41
2023-02-03T01:14:57.850Z,1012.45
2023-02-03T01:15:57.845Z,1012.35
2023-02-03T01:16:58.867Z,1012.41
2023-02-03T01:17:58.722Z,1012.43
2023-02-03T01:18:58.762Z,1012.54
2023-02-03T01:19:58.781Z,1012.53
2023-02-03T01:20:58.694Z,1012.55
2023-02-03T01:21:58.784Z,1012.51
2023-02-03T01:22:57.838Z,1012.56
2023-02-03T01:23:58.273Z,1012.59
2023-02-03T01:24:57.814Z,1012.60
2023-02-03T01:25:57.819Z,1012.52
2023-02-03T01:26:58.828Z,1012.54
2023-02-03T01:27:58.815Z,1012.55
2023-02-03T01:28:57.833Z,1012.53
2023-02-03T01:29:57.821Z,1012.58
2023-02-03T01:30:57.945Z,1012.54
2023-02-03T01:31:57.993Z,1012.57
2023-02-03T01:32:57.834Z,1012.57
2023-02-03T01:33:57.781Z,1012.50
2023-02-03T01:34:57.908Z,1012.53
2023-02-03T01:35:58.065Z,1012.51
2023-02-03T01:36:58.080Z,1012.45
2023-02-03T01:37:58.082Z,1012.43
2023-02-03T01:38:58.092Z,1012.44
2023-02-03T01:39:58.148Z,1012.55
2023-02-03T01:40:58.094Z,1012.57
2023-02-03T01:41:58.313Z,1012.51
2023-02-03T01:42:57.683Z,1012.57
2023-02-03T01:43:58.326Z,1012.50
2023-02-03T01:44:58.396Z,1012.51
2023-02-03T01:45:58.601Z,1012.49
2023-02-03T01:46:58.518Z,1012.39
2023-02-03T01:47:58.571Z,1012.46
2023-02-03T01:48:58.577Z,1012.40
2023-02-03T01:49:57.721Z,1012.43
2023-02-03T01:50:58.636Z,1012.40
2023-02-03T01:51:58.391Z,1012.48
2023-02-03T01:52:58.009Z,1012.41
2023-02-03T01:53:57.607Z,1012.42
2023-02-03T01:54:58.503Z,1012.46
2023-02-03T01:55:58.413Z,1012.53
2023-02-03T01:56:57.662Z,1012.51
2023-02-03T01:57:58.477Z,1012.52
2023-02-03T01:58:58.422Z,1012.36
2023-02-03T01:59:58.032Z,1012.28
2023-02-03T02:00:58.506Z,1012.41
2023-02-03T02:01:58.621Z,1012.36
2023-02-03T02:02:58.262Z,1012.36
2023-02-03T02:03:57.609Z,1012.39
2023-02-03T02:04:57.537Z,1012.33
2023-02-03T02:05:57.522Z,1012.41
2023-02-03T02:06:57.570Z,1012.36
2023-02-03T02:07:57.535Z,1012.33
2023-02-03T02:08:57.675Z,1012.24
2023-02-03T02:09:57.680Z,1012.34
2023-02-03T02:10:57.501Z,1012.35
2023-02-03T02:11:57.500Z,1012.39
2023-02-03T02:12:57.750Z,1012.48
2023-02-03T02:13:57.916Z,1012.49
2023-02-03T02:14:57.922Z,1012.35
2023-02-03T02:15:57.796Z,1012.41
2023-02-03T02:16:57.473Z,1012.33
2023-02-03T02:17:57.992Z,1012.40
2023-02-03T02:18:57.555Z,1012.39
2023-02-03T02:19:57.421Z,1012.37
2023-02-03T02:20:57.400Z,1012.06
2023-02-03T02:21:57.420Z,1012.20
2023-02-03T02:22:57.636Z,1012.06
2023-02-03T02:23:57.388Z,1012.16
2023-02-03T02:24:57.491Z,1012.12
2023-02-03T02:25:57.392Z,1012.15
2023-02-03T02:26:58.458Z,1012.12
2023-02-03T02:27:57.459Z,1012.10
2023-02-03T02:28:57.407Z,1012.12
2023-02-03T02:29:57.350Z,1012.06
2023-02-03T02:30:57.564Z,1012.12
2023-02-03T02:31:57.398Z,1011.90
2023-02-03T02:32:57.354Z,1011.86
2023-02-03T02:33:57.315Z,1011.81
2023-02-03T02:34:57.343Z,1011.75
2023-02-03T02:35:57.464Z,1011.75
2023-02-03T02:36:57.394Z,1011.76
2023-02-03T02:37:57.287Z,1011.76
2023-02-03T02:38:57.517Z,1011.74
2023-02-03T02:39:57.527Z,1011.78
2023-02-03T02:40:57.287Z,1011.77
2023-02-03T02:41:57.306Z,1011.69
2023-02-03T02:42:57.256Z,1011.73
2023-02-03T02:43:57.313Z,1011.68
2023-02-03T02:44:57.305Z,1011.67
2023-02-03T02:45:57.269Z,1011.63
2023-02-03T02:46:57.538Z,1011.61
2023-02-03T02:47:57.591Z,1011.64
2023-02-03T02:48:57.222Z,1011.65
2023-02-03T02:49:57.213Z,1011.59
2023-02-03T02:50:57.208Z,1011.58
2023-02-03T02:51:57.344Z,1011.56
2023-02-03T02:52:57.198Z,1011.61
2023-02-03T02:53:57.192Z,1011.55
2023-02-03T02:54:57.172Z,1011.84
2023-02-03T02:55:57.177Z,1011.53
2023-02-03T02:56:57.153Z,1011.47
2023-02-03T02:57:57.430Z,1011.53
2023-02-03T02:58:57.147Z,1011.58
2023-02-03T02:59:57.165Z,1011.43
2023-02-03T03:00:57.155Z,1011.54
2023-02-03T03:01:57.180Z,1011.52
2023-02-03T03:02:57.150Z,1011.45
2023-02-03T03:03:57.110Z,1011.57
2023-02-03T03:04:57.116Z,1011.53
2023-02-03T03:05:57.109Z,1011.53
2023-02-03T03:06:57.118Z,1011.62
2023-02-03T03:07:57.099Z,1011.68
2023-02-03T03:08:57.111Z,1011.71
2023-02-03T03:09:57.900Z,1011.96
2023-02-03T03:10:57.902Z,1012.03
2023-02-03T03:11:57.061Z,1012.25
2023-02-03T03:12:57.050Z,1012.30
2023-02-03T03:13:57.085Z,1012.27
2023-02-03T03:14:57.741Z,1012.31
2023-02-03T03:15:57.932Z,1012.32
2023-02-03T03:16:57.169Z,1012.26
2023-02-03T03:17:57.309Z,1012.18
2023-02-03T03:18:57.600Z,1012.23
2023-02-03T03:19:57.008Z,1011.99
2023-02-03T03:20:56.995Z,1012.08
2023-02-03T03:21:57.020Z,1012.00
2023-02-03T03:22:57.013Z,1012.02
2023-02-03T03:23:57.290Z,1012.09
2023-02-03T03:24:56.988Z,1011.89
2023-02-03T03:25:57.006Z,1012.00
2023-02-03T03:26:56.964Z,1011.95
2023-02-03T03:27:56.989Z,1011.85
2023-02-03T03:28:56.938Z,1011.76
2023-02-03T03:29:56.943Z,1011.65
2023-02-03T03:30:56.996Z,1011.72
2023-02-03T03:31:56.977Z,1011.73
2023-02-03T03:32:56.966Z,1011.71
2023-02-03T03:33:56.935Z,1011.74
2023-02-03T03:34:56.894Z,1011.70
2023-02-03T03:35:56.928Z,1011.75
2023-02-03T03:36:57.267Z,1011.80
2023-02-03T03:37:56.955Z,1011.76
2023-02-03T03:38:56.866Z,1011.86
2023-02-03T03:39:56.887Z,1011.94
2023-02-03T03:40:56.853Z,1011.84
2023-02-03T03:41:56.881Z,1011.88
2023-02-03T03:42:56.894Z,1011.90
2023-02-03T03:43:56.842Z,1011.92
2023-02-03T03:44:56.823Z,1011.93
2023-02-03T03:45:56.885Z,1011.92
2023-02-03T03:46:57.349Z,1011.94
2023-02-03T03:47:56.823Z,1011.93
2023-02-03T03:48:56.808Z,1011.97
2023-02-03T03:49:56.795Z,1011.99
2023-02-03T03:50:56.789Z,1011.97
2023-02-03T03:51:56.789Z,1011.92
2023-02-03T03:52:56.801Z,1011.83
2023-02-03T03:53:56.772Z,1011.95
2023-02-03T03:54:57.230Z,1011.83
2023-02-03T03:55:57.029Z,1011.89
2023-02-03T03:56:56.751Z,1011.88
2023-02-03T03:57:56.820Z,1011.88
2023-02-03T03:58:56.732Z,1011.86
2023-02-03T03:59:56.738Z,1011.79
2023-02-03T04:00:56.732Z,1011.82
2023-02-03T04:01:56.805Z,1011.74
2023-02-03T04:02:56.821Z,1011.81
2023-02-03T04:03:56.708Z,1011.74
2023-02-03T04:04:56.697Z,1011.68
2023-02-03T04:05:56.690Z,1011.64
2023-02-03T04:06:56.688Z,1011.72
2023-02-03T04:07:56.689Z,1011.72
2023-02-03T04:08:56.672Z,1011.63
2023-02-03T04:09:56.665Z,1011.64
2023-02-03T04:10:56.648Z,1011.68
2023-02-03T04:11:56.660Z,1011.67
2023-02-03T04:12:56.706Z,1011.66
2023-02-03T04:13:56.630Z,1011.59
2023-02-03T04:14:56.709Z,1011.61
2023-02-03T04:15:56.636Z,1011.48
2023-02-03T04:16:56.619Z,1011.33
2023-02-03T04:17:56.646Z,1011.50
2023-02-03T04:18:56.966Z,1011.55
2023-02-03T04:19:56.625Z,1011.64
2023-02-03T04:20:56.983Z,1011.56
2023-02-03T04:21:56.773Z,1011.58
2023-02-03T04:22:56.610Z,1011.64
2023-02-03T04:23:56.622Z,1011.63
2023-02-03T04:24:56.626Z,1011.71
2023-02-03T04:25:56.587Z,1011.70
2023-02-03T04:26:56.548Z,1011.68
2023-02-03T04:27:56.579Z,1011.75
2023-02-03T04:28:56.608Z,1011.62
2023-02-03T04:29:56.537Z,1011.66
2023-02-03T04:30:56.555Z,1011.70
2023-02-03T04:31:56.874Z,1011.66
2023-02-03T04:32:56.553Z,1011.67
2023-02-03T04:33:57.315Z,1011.64
2023-02-03T04:34:56.491Z,1011.64
2023-02-03T04:35:56.511Z,1011.55
2023-02-03T04:36:56.499Z,1011.40
2023-02-03T04:37:56.693Z,1011.42
2023-02-03T04:38:56.884Z,1011.25
2023-02-03T04:39:56.771Z,1011.34
2023-02-03T04:40:56.899Z,1011.35
2023-02-03T04:41:56.529Z,1011.57
2023-02-03T04:42:56.501Z,1011.59
2023-02-03T04:43:56.531Z,1011.53
2023-02-03T04:44:56.443Z,1011.43
2023-02-03T04:45:56.531Z,1011.39
2023-02-03T04:46:57.170Z,1011.29
2023-02-03T04:47:56.539Z,1011.31
2023-02-03T04:48:56.538Z,1011.32
2023-02-03T04:49:56.540Z,1011.30
2023-02-03T04:50:56.402Z,1011.25
2023-02-03T04:51:56.558Z,1011.29
2023-02-03T04:52:56.555Z,1011.28
2023-02-03T04:53:56.589Z,1011.33
2023-02-03T04:54:56.577Z,1011.31
2023-02-03T04:55:56.590Z,1011.37
2023-02-03T04:56:56.592Z,1011.43
2023-02-03T04:57:56.390Z,1011.48
2023-02-03T04:58:56.637Z,1011.44
2023-02-03T04:59:56.457Z,1011.51
2023-02-03T05:00:56.461Z,1011.54
2023-02-03T05:01:56.431Z,1011.52
2023-02-03T05:02:56.708Z,1011.45
2023-02-03T05:03:56.649Z,1011.38
2023-02-03T05:04:56.468Z,1011.35
2023-02-03T05:05:56.481Z,1011.37
2023-02-03T05:06:56.670Z,1011.40
2023-02-03T05:07:56.477Z,1011.45
2023-02-03T05:08:56.306Z,1011.43
2023-02-03T05:09:56.284Z,1011.46
2023-02-03T05:10:56.295Z,1011.45
2023-02-03T05:11:56.320Z,1011.37
2023-02-03T05:12:56.490Z,1011.38
2023-02-03T05:13:56.435Z,1011.35
2023-02-03T05:14:56.515Z,1011.31
2023-02-03T05:15:56.548Z,1011.35
2023-02-03T05:16:56.581Z,1011.27
2023-02-03T05:17:56.734Z,1011.26
2023-02-03T05:18:56.766Z,1011.22
2023-02-03T05:19:56.765Z,1011.21
2023-02-03T05:20:56.184Z,1011.26
2023-02-03T05:21:56.179Z,1011.21
2023-02-03T05:22:56.355Z,1011.22
2023-02-03T05:23:56.573Z,1011.21
2023-02-03T05:24:56.399Z,1011.21
2023-02-03T05:25:56.571Z,1011.14
2023-02-03T05:26:56.392Z,1011.06
2023-02-03T05:27:56.240Z,1011.18
2023-02-03T05:28:57.814Z,1011.19
2023-02-03T05:29:56.831Z,1011.09
2023-02-03T05:30:56.452Z,1011.17
2023-02-03T05:31:56.706Z,1011.11
2023-02-03T05:32:57.037Z,1011.11
2023-02-03T05:33:57.081Z,1011.04
2023-02-03T05:34:56.441Z,1011.00
2023-02-03T05:35:56.235Z,1011.06
2023-02-03T05:36:56.640Z,1011.06
2023-02-03T05:37:56.471Z,1011.10
2023-02-03T05:38:56.263Z,1011.12
2023-02-03T05:39:56.670Z,1011.17
2023-02-03T05:40:56.099Z,1011.13
2023-02-03T05:41:58.338Z,1011.11
2023-02-03T05:42:56.281Z,1011.09
2023-02-03T05:43:56.511Z,1011.16
2023-02-03T05:44:56.709Z,1011.16
2023-02-03T05:45:56.559Z,1011.02
2023-02-03T05:46:56.956Z,1011.26
2023-02-03T05:47:56.011Z,1011.23
2023-02-03T05:48:56.133Z,1011.20
2023-02-03T05:49:56.147Z,1011.29
2023-02-03T05:50:56.243Z,1011.16
2023-02-03T05:51:56.010Z,1011.23
2023-02-03T05:52:56.149Z,1011.23
2023-02-03T05:53:55.992Z,1011.28
2023-02-03T05:54:55.986Z,1011.23
2023-02-03T05:55:55.978Z,1011.22
2023-02-03T05:56:56.516Z,1011.26
2023-02-03T05:57:56.025Z,1011.28
2023-02-03T05:58:55.982Z,1011.16
2023-02-03T05:59:56.316Z,1011.22
2023-02-03T06:00:56.259Z,1011.13
2023-02-03T06:01:55.930Z,1011.01
2023-02-03T06:02:55.978Z,1011.12
2023-02-03T06:03:56.071Z,1011.11
2023-02-03T06:04:56.765Z,1011.00
2023-02-03T06:05:55.908Z,1011.01
2023-02-03T06:06:56.098Z,1010.94
2023-02-03T06:07:56.452Z,1010.95
2023-02-03T06:08:56.903Z,1010.97
2023-02-03T06:09:56.002Z,1010.94
2023-02-03T06:10:56.084Z,1010.96
2023-02-03T06:11:55.883Z,1010.93
2023-02-03T06:12:56.003Z,1010.93
2023-02-03T06:13:56.011Z,1010.93
2023-02-03T06:14:55.991Z,1011.03
2023-02-03T06:15:56.118Z,1011.00
2023-02-03T06:16:55.957Z,1010.99
2023-02-03T06:17:56.113Z,1010.98
2023-02-03T06:18:56.121Z,1010.90
2023-02-03T06:19:56.130Z,1011.03
2023-02-03T06:20:55.784Z,1010.98
2023-02-03T06:21:55.801Z,1011.00
2023-02-03T06:22:55.792Z,1010.98
2023-02-03T06:23:55.795Z,1011.07
2023-02-03T06:24:55.780Z,1010.98
2023-02-03T06:25:55.832Z,1010.99
2023-02-03T06:26:55.776Z,1010.96
2023-02-03T06:27:56.041Z,1011.00
2023-02-03T06:28:55.765Z,1011.11
2023-02-03T06:29:56.012Z,1011.11
2023-02-03T06:30:56.326Z,1011.18
2023-02-03T06:31:56.268Z,1011.14
2023-02-03T06:32:56.203Z,1011.20
2023-02-03T06:33:55.799Z,1011.27
2023-02-03T06:34:56.008Z,1011.20
2023-02-03T06:35:56.443Z,1011.22
2023-02-03T06:36:56.552Z,1011.27
2023-02-03T06:37:56.029Z,1011.19
2023-02-03T06:38:55.659Z,1010.99
2023-02-03T06:39:55.686Z,1011.29
2023-02-03T06:40:55.700Z,1011.38
2023-02-03T06:41:55.656Z,1011.36
2023-02-03T06:42:55.629Z,1011.29
2023-02-03T06:43:55.635Z,1011.22
2023-02-03T06:44:55.708Z,1011.21
2023-02-03T06:45:55.715Z,1011.32
2023-02-03T06:46:56.499Z,1011.45
2023-02-03T06:47:55.694Z,1011.21
2023-02-03T06:48:55.715Z,1011.20
2023-02-03T06:49:55.704Z,1011.15
2023-02-03T06:50:55.600Z,1011.15
2023-02-03T06:51:55.718Z,1011.15
2023-02-03T06:52:55.733Z,1011.11
2023-02-03T06:53:55.571Z,1011.16
2023-02-03T06:54:55.742Z,1011.27
2023-02-03T06:55:55.654Z,1011.20
2023-02-03T06:56:55.746Z,1010.99
2023-02-03T06:57:55.770Z,1011.11
2023-02-03T06:58:55.597Z,1011.16
2023-02-03T06:59:55.567Z,1011.15
2023-02-03T07:00:55.575Z,1011.23
2023-02-03T07:01:55.643Z,1011.21
2023-02-03T07:02:55.583Z,1011.32
2023-02-03T07:03:55.505Z,1011.23
2023-02-03T07:04:55.812Z,1011.20
2023-02-03T07:05:55.820Z,1011.24
2023-02-03T07:06:55.488Z,1011.32
2023-02-03T07:07:55.708Z,1011.34
2023-02-03T07:08:55.836Z,1011.23
2023-02-03T07:09:55.473Z,1011.34
2023-02-03T07:10:55.842Z,1011.42
2023-02-03T07:11:55.870Z,1011.46
2023-02-03T07:12:55.717Z,1011.43
2023-02-03T07:13:55.863Z,1011.40
2023-02-03T07:14:55.871Z,1011.36
2023-02-03T07:15:55.926Z,1011.40
2023-02-03T07:16:55.476Z,1011.42
2023-02-03T07:17:55.905Z,1011.39
2023-02-03T07:18:55.691Z,1011.38
2023-02-03T07:19:55.913Z,1011.26
2023-02-03T07:20:55.919Z,1011.38
2023-02-03T07:21:55.367Z,1011.33
2023-02-03T07:22:56.000Z,1011.18
2023-02-03T07:23:55.372Z,1011.24
2023-02-03T07:24:55.371Z,1011.21
2023-02-03T07:27:21.314Z,1011.29
2023-02-03T07:28:21.351Z,1011.30
2023-02-03T07:29:21.288Z,1011.32
2023-02-03T07:30:21.284Z,1011.26
2023-02-03T07:31:21.389Z,1011.13
2023-02-03T07:32:21.268Z,1011.30
2023-02-03T07:33:21.257Z,1011.27
2023-02-03T07:34:21.259Z,1011.25
2023-02-03T07:35:21.316Z,1011.37
2023-02-03T07:36:21.327Z,1011.29
2023-02-03T07:37:21.404Z,1011.34
2023-02-03T07:38:21.288Z,1011.30
2023-02-03T07:39:21.283Z,1011.31
2023-02-03T07:40:21.369Z,1011.30
2023-02-03T07:41:21.290Z,1011.31
2023-02-03T07:42:21.303Z,1011.35
2023-02-03T07:43:21.315Z,1011.35
2023-02-03T07:44:21.195Z,1011.31
2023-02-03T07:45:21.211Z,1011.29
2023-02-03T07:46:21.378Z,1011.31
2023-02-03T07:47:21.331Z,1011.28
2023-02-03T07:48:21.341Z,1011.21
2023-02-03T07:49:21.349Z,1011.20
2023-02-03T07:50:21.363Z,1011.01
2023-02-03T07:51:21.150Z,1011.14
2023-02-03T07:52:22.080Z,1011.21
2023-02-03T07:53:21.380Z,1011.16
2023-02-03T07:54:21.386Z,1011.16
2023-02-03T07:55:21.399Z,1011.10
2023-02-03T07:56:21.398Z,1011.11
2023-02-03T07:57:21.409Z,1011.13
2023-02-03T07:58:21.417Z,1011.05
2023-02-03T07:59:21.217Z,1011.04
2023-02-03T08:00:21.080Z,1011.02
2023-02-03T08:01:21.478Z,1011.05
2023-02-03T08:02:21.455Z,1011.16
2023-02-03T08:03:21.064Z,1011.13
2023-02-03T08:04:21.513Z,1011.17
2023-02-03T08:05:21.075Z,1011.15
2023-02-03T08:06:21.496Z,1011.15
2023-02-03T08:07:21.097Z,1010.99
2023-02-03T08:08:21.118Z,1010.99
2023-02-03T08:09:21.082Z,1011.13
2023-02-03T08:10:21.164Z,1011.21
2023-02-03T08:11:21.132Z,1011.04
2023-02-03T08:12:21.304Z,1011.07
2023-02-03T08:13:21.344Z,1011.15
2023-02-03T08:14:21.334Z,1011.15
2023-02-03T08:15:20.982Z,1011.12
2023-02-03T08:16:21.093Z,1011.16
2023-02-03T08:17:21.553Z,1011.03
2023-02-03T08:18:20.984Z,1011.15
2023-02-03T08:19:20.988Z,1011.12
2023-02-03T08:20:20.943Z,1011.19
2023-02-03T08:21:20.965Z,1011.19
2023-02-03T08:22:20.924Z,1011.24
2023-02-03T08:23:20.924Z,1011.24
2023-02-03T08:24:20.914Z,1011.19
2023-02-03T08:25:22.642Z,1011.15
2023-02-03T08:26:20.952Z,1011.20
2023-02-03T08:27:20.925Z,1011.22
2023-02-03T08:28:21.067Z,1011.16
2023-02-03T08:29:21.004Z,1011.19
2023-02-03T08:30:20.873Z,1011.18
2023-02-03T08:31:21.037Z,1011.16
2023-02-03T08:32:21.081Z,1011.16
2023-02-03T08:33:21.071Z,1011.21
2023-02-03T08:34:20.852Z,1011.26
2023-02-03T08:35:21.081Z,1011.13
2023-02-03T08:36:21.097Z,1011.20
2023-02-03T08:37:20.913Z,1011.18
2023-02-03T08:38:20.871Z,1011.17
2023-02-03T08:39:21.119Z,1011.18
2023-02-03T08:40:20.891Z,1011.25
2023-02-03T08:41:21.193Z,1011.22
2023-02-03T08:42:20.879Z,1011.29
2023-02-03T08:43:21.174Z,1011.26
2023-02-03T08:44:20.922Z,1011.19
2023-02-03T08:45:20.937Z,1011.24
2023-02-03T08:46:20.759Z,1011.26
2023-02-03T08:47:21.027Z,1011.20
2023-02-03T08:48:20.958Z,1011.29
2023-02-03T08:49:21.179Z,1011.37
2023-02-03T08:50:21.160Z,1011.21
2023-02-03T08:51:20.760Z,1011.31
2023-02-03T08:52:21.179Z,1011.30
2023-02-03T08:53:21.001Z,1011.28
2023-02-03T08:54:21.190Z,1011.27
2023-02-03T08:55:20.850Z,1011.33
2023-02-03T08:56:21.202Z,1011.26
2023-02-03T08:57:20.834Z,1011.35
2023-02-03T08:58:20.862Z,1011.27
2023-02-03T08:59:21.234Z,1011.32
2023-02-03T09:00:21.025Z,1011.27
2023-02-03T09:01:21.516Z,1011.31
2023-02-03T09:02:20.704Z,1011.31
2023-02-03T09:03:20.663Z,1011.32
2023-02-03T09:04:20.657Z,1011.18
2023-02-03T09:05:21.115Z,1011.25
2023-02-03T09:06:22.785Z,1011.26
2023-02-03T09:07:20.723Z,1011.29
2023-02-03T09:08:20.728Z,1011.22
2023-02-03T09:09:20.721Z,1011.34
2023-02-03T09:10:20.670Z,1011.28
2023-02-03T09:11:20.691Z,1011.28
2023-02-03T09:12:20.737Z,1011.24
2023-02-03T09:13:20.732Z,1011.25
2023-02-03T09:14:20.722Z,1011.24
2023-02-03T09:15:20.737Z,1011.16
2023-02-03T09:16:20.625Z,1011.26
2023-02-03T09:17:20.616Z,1011.29
2023-02-03T09:18:20.581Z,1011.34
2023-02-03T09:19:20.571Z,1011.24
2023-02-03T09:20:20.683Z,1011.30
2023-02-03T09:21:31.888Z,1011.22
2023-02-03T09:22:20.551Z,1011.20
2023-02-03T09:23:20.520Z,1011.34
2023-02-03T09:24:20.531Z,1011.26
2023-02-03T09:25:20.514Z,1011.22
2023-02-03T09:26:20.527Z,1011.28
2023-02-03T09:27:20.511Z,1011.19
2023-02-03T09:28:20.542Z,1011.21
2023-02-03T09:29:20.492Z,1011.19
2023-02-03T09:30:20.483Z,1011.24
2023-02-03T09:31:20.525Z,1011.15
2023-02-03T09:32:20.525Z,1011.02
2023-02-03T09:33:20.450Z,1011.09
2023-02-03T09:34:21.073Z,1011.10
2023-02-03T09:35:20.448Z,1011.16
2023-02-03T09:36:20.450Z,1011.11
2023-02-03T09:37:20.447Z,1011.05
2023-02-03T09:38:21.103Z,1010.94
2023-02-03T09:39:21.096Z,1011.02
2023-02-03T09:40:21.105Z,1011.00
2023-02-03T09:41:20.417Z,1010.92
2023-02-03T09:42:20.507Z,1010.88
2023-02-03T09:43:20.449Z,1010.99
2023-02-03T09:44:20.377Z,1011.03
2023-02-03T09:45:20.372Z,1011.20
2023-02-03T09:46:21.299Z,1011.14
2023-02-03T09:47:21.038Z,1011.21
2023-02-03T09:48:20.364Z,1011.21
2023-02-03T09:49:20.355Z,1011.23
2023-02-03T09:50:20.386Z,1011.18
2023-02-03T09:51:20.383Z,1011.10
2023-02-03T09:52:20.365Z,1011.13
2023-02-03T09:53:20.315Z,1011.20
2023-02-03T09:54:20.407Z,1011.22
2023-02-03T09:55:20.417Z,1011.16
2023-02-03T09:56:20.319Z,1011.25
2023-02-03T09:57:20.365Z,1011.18
2023-02-03T09:58:20.283Z,1011.24
2023-02-03T09:59:20.292Z,1011.31
2023-02-03T10:00:20.274Z,1011.25
2023-02-03T10:01:20.322Z,1011.33
2023-02-03T10:02:20.316Z,1011.45
2023-02-03T10:03:20.517Z,1011.51
2023-02-03T10:04:20.242Z,1011.40
2023-02-03T10:05:20.670Z,1011.46
2023-02-03T10:06:20.228Z,1011.19
2023-02-03T10:07:20.273Z,1011.57
2023-02-03T10:08:20.255Z,1011.63
2023-02-03T10:09:20.692Z,1011.62
2023-02-03T10:10:20.733Z,1011.67
2023-02-03T10:11:20.699Z,1011.59
2023-02-03T10:12:20.501Z,1011.65
2023-02-03T10:13:20.711Z,1011.61
2023-02-03T10:14:20.711Z,1011.53
2023-02-03T10:15:20.293Z,1011.49
2023-02-03T10:16:20.676Z,1011.35
2023-02-03T10:17:20.233Z,1011.40
2023-02-03T10:18:20.184Z,1011.40
2023-02-03T10:19:20.137Z,1011.41
2023-02-03T10:20:20.148Z,1011.32
2023-02-03T10:21:20.780Z,1011.44
2023-02-03T10:22:20.766Z,1011.39
2023-02-03T10:23:20.137Z,1011.45
2023-02-03T10:24:20.778Z,1011.41
2023-02-03T10:25:20.113Z,1011.30
2023-02-03T10:26:20.797Z,1011.30
2023-02-03T10:27:20.385Z,1011.28
2023-02-03T10:28:20.251Z,1011.07
2023-02-03T10:29:20.114Z,1011.24
2023-02-03T10:30:20.515Z,1011.24
2023-02-03T10:31:20.325Z,1011.30
2023-02-03T10:32:21.526Z,1011.07
2023-02-03T10:33:20.118Z,1011.20
2023-02-03T10:34:20.238Z,1011.23
2023-02-03T10:35:20.049Z,1011.37
2023-02-03T10:36:20.155Z,1011.25
2023-02-03T10:37:20.074Z,1011.38
2023-02-03T10:38:20.481Z,1011.43
2023-02-03T10:39:20.483Z,1011.45
2023-02-03T10:40:20.484Z,1011.47
2023-02-03T10:41:20.241Z,1011.55
2023-02-03T10:42:21.484Z,1011.54
2023-02-03T10:43:20.094Z,1011.39
2023-02-03T10:44:20.076Z,1011.43
2023-02-03T10:45:20.049Z,1011.44
2023-02-03T10:46:20.429Z,1011.52
2023-02-03T10:47:20.187Z,1011.47
2023-02-03T10:48:19.994Z,1011.56
2023-02-03T10:49:20.141Z,1011.48
2023-02-03T10:50:20.515Z,1011.54
2023-02-03T10:51:20.151Z,1011.53
2023-02-03T10:52:20.172Z,1011.64
2023-02-03T10:53:20.621Z,1011.47
2023-02-03T10:54:20.584Z,1011.63
2023-02-03T10:55:20.588Z,1011.53
2023-02-03T10:56:19.929Z,1011.45
2023-02-03T10:57:19.998Z,1011.39
2023-02-03T10:58:20.181Z,1011.45
2023-02-03T10:59:19.987Z,1011.37
2023-02-03T11:00:22.202Z,1011.24
2023-02-03T11:01:20.432Z,1011.24
2023-02-03T11:02:20.789Z,1011.13
2023-02-03T11:03:20.009Z,1011.22
2023-02-03T11:04:20.442Z,1011.25
2023-02-03T11:05:20.441Z,1011.28
2023-02-03T11:06:20.649Z,1011.22
2023-02-03T11:07:19.947Z,1011.29
2023-02-03T11:08:19.845Z,1011.20
2023-02-03T11:09:19.849Z,1011.38
2023-02-03T11:10:19.901Z,1011.33
2023-02-03T11:11:19.873Z,1011.49
2023-02-03T11:12:19.905Z,1011.48
2023-02-03T11:13:19.887Z,1011.53
2023-02-03T11:14:20.137Z,1011.45
2023-02-03T11:15:19.808Z,1011.56
2023-02-03T11:16:19.780Z,1011.50
2023-02-03T11:17:20.228Z,1011.50
2023-02-03T11:18:19.775Z,1011.69
2023-02-03T11:19:20.148Z,1011.62
2023-02-03T11:20:20.343Z,1011.70
2023-02-03T11:21:19.815Z,1011.66
2023-02-03T11:22:20.134Z,1011.69
2023-02-03T11:23:21.045Z,1011.60
2023-02-03T11:24:19.860Z,1011.64
2023-02-03T11:25:20.588Z,1011.73
2023-02-03T11:26:19.777Z,1011.64
2023-02-03T11:27:19.800Z,1011.67
2023-02-03T11:28:20.825Z,1011.56
2023-02-03T11:29:22.821Z,1011.68
2023-02-03T11:30:19.681Z,1011.68
2023-02-03T11:31:19.819Z,1011.69
2023-02-03T11:32:19.667Z,1011.58
2023-02-03T11:33:19.657Z,1011.64
2023-02-03T11:34:19.822Z,1011.66
2023-02-03T11:35:20.371Z,1011.61
2023-02-03T11:36:19.625Z,1011.64
2023-02-03T11:37:19.641Z,1011.75
2023-02-03T11:38:19.624Z,1011.66
2023-02-03T11:39:19.666Z,1011.54
2023-02-03T11:40:19.615Z,1011.64
2023-02-03T11:41:19.672Z,1011.50
2023-02-03T11:42:19.623Z,1011.45
2023-02-03T11:43:19.681Z,1011.47
2023-02-03T11:44:20.305Z,1011.38
2023-02-03T11:45:20.300Z,1011.40
2023-02-03T11:46:19.613Z,1011.50
2023-02-03T11:47:19.559Z,1011.41
2023-02-03T11:48:19.540Z,1011.38
2023-02-03T11:49:19.656Z,1011.38
2023-02-03T11:50:19.548Z,1011.47
2023-02-03T11:51:19.520Z,1011.48
2023-02-03T11:52:19.521Z,1011.44
2023-02-03T11:53:19.833Z,1011.46
2023-02-03T11:54:19.515Z,1011.42
2023-02-03T11:55:19.581Z,1011.38
2023-02-03T11:56:19.491Z,1011.26
2023-02-03T11:57:19.499Z,1011.30
2023-02-03T11:58:19.496Z,1011.34
2023-02-03T11:59:21.044Z,1011.30
2023-02-03T12:00:19.477Z,1011.33
2023-02-03T12:01:19.470Z,1011.33
2023-02-03T12:02:19.451Z,1011.31
2023-02-03T12:03:19.462Z,1011.24
2023-02-03T12:04:19.479Z,1011.20
2023-02-03T12:05:19.426Z,1011.22
2023-02-03T12:06:19.446Z,1011.23
2023-02-03T12:07:19.416Z,1011.19